Weather at Frankfurt am Main Airport

Public forecast

Using degrees Celsius for public forecast. Weather courtesy of forecast.io.

Current aviation weather report (METAR) for Frankfurt am Main Airport

Retrieved 2021/08/04 15:20 UTC (38 minutes ago):

EDDF 041520Z VRB03KT 9999 FEW034TCU 22/12 Q1012 NOSIG

Aviation forecast (TAF) for Frankfurt am Main Airport

Retrieved 2021/08/04 12:00 UTC (4 hours ago):

TAF COR EDDF 041149Z 0412/0518 20008KT 9999 BKN030 PROB30 TEMPO 0412/0415 SHRA BKN030CB BECMG 0418/0420 VRB03KT PROB30 TEMPO 0505/0508 4000 SHRA BKN010CB BECMG 0506/0508 21007KT PROB30 TEMPO 0511/0515 4000 TSRA BKN030CB